地図

経路データ

SID SEASON NUMBER BASIN SUBBASIN NAME ISO_TIME NATURE LAT LON WMO_WIND WMO_PRES WMO_AGENCY TRACK_TYPE DIST2LAND LANDFALL IFLAG USA_AGENCY USA_ATCF_ID USA_LAT USA_LON USA_RECORD USA_STATUS USA_WIND USA_PRES USA_SSHS USA_R34_NE USA_R34_SE USA_R34_SW USA_R34_NW USA_R50_NE USA_R50_SE USA_R50_SW USA_R50_NW USA_R64_NE USA_R64_SE USA_R64_SW USA_R64_NW USA_POCI USA_ROCI USA_RMW USA_EYE TOKYO_LAT TOKYO_LON TOKYO_GRADE TOKYO_WIND TOKYO_PRES TOKYO_R50_DIR TOKYO_R50_LONG TOKYO_R50_SHORT TOKYO_R30_DIR TOKYO_R30_LONG TOKYO_R30_SHORT TOKYO_LAND CMA_LAT CMA_LON CMA_CAT CMA_WIND CMA_PRES HKO_LAT HKO_LON HKO_CAT HKO_WIND HKO_PRES NEWDELHI_LAT NEWDELHI_LON NEWDELHI_GRADE NEWDELHI_WIND NEWDELHI_PRES NEWDELHI_CI NEWDELHI_DP NEWDELHI_POCI REUNION_LAT REUNION_LON REUNION_TYPE REUNION_WIND REUNION_PRES REUNION_TNUM REUNION_CI REUNION_RMW REUNION_R34_NE REUNION_R34_SE REUNION_R34_SW REUNION_R34_NW REUNION_R50_NE REUNION_R50_SE REUNION_R50_SW REUNION_R50_NW REUNION_R64_NE REUNION_R64_SE REUNION_R64_SW REUNION_R64_NW BOM_LAT BOM_LON BOM_TYPE BOM_WIND BOM_PRES BOM_TNUM BOM_CI BOM_RMW BOM_R34_NE BOM_R34_SE BOM_R34_SW BOM_R34_NW BOM_R50_NE BOM_R50_SE BOM_R50_SW BOM_R50_NW BOM_R64_NE BOM_R64_SE BOM_R64_SW BOM_R64_NW BOM_ROCI BOM_POCI BOM_EYE BOM_POS_METHOD BOM_PRES_METHOD NADI_LAT NADI_LON NADI_CAT NADI_WIND NADI_PRES WELLINGTON_LAT WELLINGTON_LON WELLINGTON_WIND WELLINGTON_PRES DS824_LAT DS824_LON DS824_STAGE DS824_WIND DS824_PRES TD9636_LAT TD9636_LON TD9636_STAGE TD9636_WIND TD9636_PRES TD9635_LAT TD9635_LON TD9635_WIND TD9635_PRES TD9635_ROCI NEUMANN_LAT NEUMANN_LON NEUMANN_CLASS NEUMANN_WIND NEUMANN_PRES MLC_LAT MLC_LON MLC_CLASS MLC_WIND MLC_PRES USA_GUST BOM_GUST BOM_GUST_PER REUNION_GUST REUNION_GUST_PER USA_SEAHGT USA_SEARAD_NE USA_SEARAD_SE USA_SEARAD_SW USA_SEARAD_NW STORM_SPEED STORM_DIR
1932281N21133 1932 60 WP MM NOT_NAMED 1932-10-06 21:00:00 NR 20.9000 133.400 main 1159 1123 __________O___ -1 20.9000 133.400 2 10 37
1932281N21133 1932 60 WP MM NOT_NAMED 1932-10-07 00:00:00 NR 21.3051 133.729 main 1123 1089 __________P___ -1 21.3051 133.729 2 10 37
1932281N21133 1932 60 WP MM NOT_NAMED 1932-10-07 03:00:00 NR 21.7379 134.067 main 1092 1049 __________P___ -1 21.7379 134.067 2 11 35
1932281N21133 1932 60 WP MM NOT_NAMED 1932-10-07 06:00:00 NR 22.2267 134.421 main 1049 1001 __________P___ -1 22.2267 134.421 2 13 33
1932281N21133 1932 60 WP MM NOT_NAMED 1932-10-07 09:00:00 NR 22.8000 134.800 main 1001 953 __________O___ -1 22.8000 134.800 4 15 30
1932281N21133 1932 60 WP MM NOT_NAMED 1932-10-07 12:00:00 NR 23.4765 135.210 main 947 899 __________P___ -1 23.4765 135.210 4 16 28
1932281N21133 1932 60 WP MM NOT_NAMED 1932-10-07 15:00:00 NR 24.2374 135.649 main 899 849 __________P___ -1 24.2374 135.649 4 18 28
1932281N21133 1932 60 WP MM NOT_NAMED 1932-10-07 18:00:00 NR 25.0546 136.114 main 840 795 __________P___ -1 25.0546 136.114 4 19 27
1932281N21133 1932 60 WP MM NOT_NAMED 1932-10-07 21:00:00 NR 25.9000 136.600 main 795 756 __________O___ -1 25.9000 136.600 4 18 25
1932281N21133 1932 60 WP MM NOT_NAMED 1932-10-08 00:00:00 NR 26.6943 136.962 main 755 673 __________P___ -1 26.6943 136.962 4 18 23
1932281N21133 1932 60 WP MM NOT_NAMED 1932-10-08 03:00:00 NR 27.5151 137.364 main 675 600 __________P___ -1 27.5151 137.364 4 19 26
1932281N21133 1932 60 WP MM NOT_NAMED 1932-10-08 06:00:00 NR 28.3787 137.908 main 592 538 __________P___ -1 28.3787 137.908 4 21 33
1932281N21133 1932 60 WP MM NOT_NAMED 1932-10-08 09:00:00 NR 29.3000 138.700 main 533 490 __________O___ -1 29.3000 138.700 4 27 43
1932281N21133 1932 60 WP MM NOT_NAMED 1932-10-08 12:00:00 NR 30.3232 139.967 main 492 421 __________P___ -1 30.3232 139.967 4 32 49
1932281N21133 1932 60 WP MM NOT_NAMED 1932-10-08 15:00:00 NR 31.3830 141.493 main 417 391 __________P___ -1 31.3830 141.493 4 34 52
1932281N21133 1932 60 WP MM NOT_NAMED 1932-10-08 18:00:00 NR 32.4242 143.100 main 399 396 __________P___ -1 32.4242 143.100 4 33 52
1932281N21133 1932 60 WP MM NOT_NAMED 1932-10-08 21:00:00 NR 33.4000 144.600 main 424 424 __________O___ -1 33.4000 144.600 2 28 49
1932281N21133 1932 60 WP MM NOT_NAMED 1932-10-09 00:00:00 NR 34.2391 145.623 main 458 458 __________P___ -1 34.2391 145.623 2 23 44
1932281N21133 1932 60 WP MM NOT_NAMED 1932-10-09 03:00:00 NR 35.0275 146.513 main 512 512 __________P___ -1 35.0275 146.513 2 21 43
1932281N21133 1932 60 WP MM NOT_NAMED 1932-10-09 06:00:00 NR 35.8033 147.419 main 585 585 __________P___ -1 35.8033 147.419 2 23 46
1932281N21133 1932 60 WP MM NOT_NAMED 1932-10-09 09:00:00 NR 36.6000 148.500 main 644 644 __________O___ -1 36.6000 148.500 2 26 50
1932281N21133 1932 60 WP MM NOT_NAMED 1932-10-09 12:00:00 NR 37.4371 149.884 main 716 716 __________P___ -1 37.4371 149.884 2 30 55
1932281N21133 1932 60 WP MM NOT_NAMED 1932-10-09 15:00:00 NR 38.2982 151.544 main 741 741 __________P___ -1 38.2982 151.544 2 33 58
1932281N21133 1932 60 WP MM NOT_NAMED 1932-10-09 18:00:00 NR 39.1596 153.408 main 773 766 __________P___ -1 39.1596 153.408 2 34 60
1932281N21133 1932 60 WP MM NOT_NAMED 1932-10-09 21:00:00 NR 40.0000 155.400 main 775 __________O___ -1 40.0000 155.400 2 35 61

デジタル台風データ・検索

IBTrACS Databaseについて

本データベースは、米国NOAAが公開する1842年以降の世界の熱帯低気圧のベストトラックデータアーカイブInternational Best Track Archive for Climate Stewardship (IBTrACS)を、ウェブで閲覧しやすい形式に変換したものです。

最終更新日:2021-10-19